Time;durP1;ratioP1;P1;durP2;ratioP2;P2;SDS_P1;SDS_P2;PMS_P1;PMS_P2;Temp;Humidity;BMP_temperature;BMP_pressure;BME280_temperature;BME280_humidity;BME280_pressure;Samples;Min_cycle;Max_cycle;Signal;HPM_P1;HPM_P2
2023/10/05 00:01:07;;;;;;;5.93;2.08;;;;;;;20.84;53.05;102267.88;4915573;29;20059;-71
2023/10/05 00:03:51;;;;;;;6.18;1.85;;;;;;;20.84;53.21;102268.72;4905126;29;20028;-71
2023/10/05 00:06:25;;;;;;;4.60;1.70;;;;;;;20.83;52.88;102266.16;4906039;29;20052;-71
2023/10/05 00:08:53;;;;;;;3.90;1.50;;;;;;;20.84;53.11;102267.88;4909573;29;20035;-73
2023/10/05 00:11:30;;;;;;;4.88;1.70;;;;;;;20.83;53.12;102274.94;4889971;29;20350;-75
2023/10/05 00:13:57;;;;;;;5.97;1.92;;;;;;;20.83;53.08;102268.81;4917557;29;20560;-71
2023/10/05 00:16:23;;;;;;;5.35;1.80;;;;;;;20.82;53.32;102272.41;4907639;29;20039;-70
2023/10/05 00:18:50;;;;;;;4.95;1.70;;;;;;;20.81;53.01;102276.03;4895012;29;20091;-74
2023/10/05 00:21:20;;;;;;;4.22;1.50;;;;;;;20.80;53.03;102276.97;4915859;29;20075;-71
2023/10/05 00:23:54;;;;;;;4.80;1.90;;;;;;;20.81;53.20;102278.69;4903598;29;20036;-72
2023/10/05 00:26:20;;;;;;;4.68;1.50;;;;;;;20.82;53.05;102283.00;4912468;29;20031;-74
2023/10/05 00:28:55;;;;;;;5.15;1.80;;;;;;;20.81;52.94;102283.97;4911236;29;20075;-71
2023/10/05 00:31:24;;;;;;;5.10;1.60;;;;;;;20.80;53.26;102288.41;4911323;29;20051;-71
2023/10/05 00:33:55;;;;;;;5.20;1.60;;;;;;;20.80;52.96;102284.94;4913652;29;20039;-73
2023/10/05 00:36:23;;;;;;;4.63;1.60;;;;;;;20.80;52.88;102288.41;4912962;29;20116;-73
2023/10/05 00:38:49;;;;;;;5.88;1.77;;;;;;;20.80;52.94;102291.06;4909916;29;20470;-75
2023/10/05 00:41:14;;;;;;;7.82;2.42;;;;;;;20.79;52.70;102297.34;4911561;29;20703;-72
2023/10/05 00:43:40;;;;;;;5.20;1.98;;;;;;;20.78;52.95;102295.63;4914468;29;20042;-76
2023/10/05 00:46:06;;;;;;;5.00;1.45;;;;;;;20.80;52.93;102298.16;4911022;29;20954;-71
2023/10/05 00:48:42;;;;;;;4.93;1.45;;;;;;;20.78;52.89;102298.28;4910816;29;20032;-70
2023/10/05 00:51:26;;;;;;;6.28;1.73;;;;;;;20.78;53.05;102302.75;4910627;29;20039;-71
2023/10/05 00:53:53;;;;;;;4.60;1.60;;;;;;;20.79;53.22;102300.00;4914417;29;20122;-70
2023/10/05 00:56:23;;;;;;;6.35;1.90;;;;;;;20.77;53.08;102293.94;4921805;29;20150;-71
2023/10/05 00:58:54;;;;;;;4.75;1.83;;;;;;;20.78;52.81;102295.63;4908538;29;20382;-75
2023/10/05 01:01:24;;;;;;;4.15;1.55;;;;;;;20.78;52.97;102289.50;4903147;29;20058;-74
2023/10/05 01:06:39;;;;;;;4.47;1.45;;;;;;;20.76;52.97;102300.19;4904638;29;20043;-71
2023/10/05 01:09:56;;;;;;;3.75;1.40;;;;;;;20.75;53.09;102306.44;4903067;29;20506;-75
2023/10/05 01:12:11;;;;;;;3.53;1.35;;;;;;;20.76;52.72;102310.78;4915643;29;20043;-70
2023/10/05 01:14:46;;;;;;;3.88;1.58;;;;;;;20.74;52.96;102306.53;4920882;29;20117;-75
2023/10/05 01:17:11;;;;;;;5.05;1.60;;;;;;;20.76;52.90;102299.34;4908800;29;20043;-71
2023/10/05 01:19:39;;;;;;;6.38;1.67;;;;;;;20.74;52.79;102299.44;4916668;29;20039;-73
2023/10/05 01:22:13;;;;;;;4.07;1.35;;;;;;;20.74;52.92;102295.94;4925111;29;20134;-71
2023/10/05 01:24:39;;;;;;;4.97;1.52;;;;;;;20.74;52.90;102290.66;4910270;29;21076;-76
2023/10/05 01:27:04;;;;;;;5.53;1.50;;;;;;;20.74;52.80;102293.31;4914829;29;20036;-71
2023/10/05 01:29:29;;;;;;;4.57;1.77;;;;;;;20.73;52.95;102296.88;4915573;29;20059;-74
2023/10/05 01:31:56;;;;;;;4.60;1.50;;;;;;;20.73;52.82;102291.59;4922120;29;20046;-71
2023/10/05 01:34:21;;;;;;;4.10;1.40;;;;;;;20.71;52.71;102288.22;4914056;29;20477;-69
2023/10/05 01:36:47;;;;;;;6.22;1.70;;;;;;;20.72;52.98;102293.41;4912364;29;20036;-70
2023/10/05 01:39:12;;;;;;;4.55;1.60;;;;;;;20.72;52.74;102295.22;4911483;29;20587;-71
2023/10/05 01:41:38;;;;;;;4.75;1.63;;;;;;;20.71;52.86;102299.69;4918166;29;20468;-75
2023/10/05 01:44:04;;;;;;;3.22;1.50;;;;;;;20.71;52.80;102297.03;4915031;29;20031;-70
2023/10/05 01:46:32;;;;;;;4.45;1.58;;;;;;;20.71;53.03;102288.22;4919271;29;20094;-71
2023/10/05 01:48:57;;;;;;;4.03;1.60;;;;;;;20.71;52.73;102282.91;4918033;29;20441;-73
2023/10/05 01:51:26;;;;;;;5.67;1.70;;;;;;;20.70;52.71;102282.06;4918294;29;20114;-72
2023/10/05 01:53:52;;;;;;;4.80;1.70;;;;;;;20.71;52.83;102285.56;4919406;29;20353;-71
2023/10/05 01:56:20;;;;;;;7.07;1.55;;;;;;;20.70;52.80;102284.72;4914832;29;20059;-71
2023/10/05 01:58:50;;;;;;;3.72;1.70;;;;;;;20.71;52.65;102282.91;4915091;29;20127;-72
2023/10/05 02:01:18;;;;;;;5.47;1.40;;;;;;;20.69;52.76;102285.66;4916098;29;20930;-75
2023/10/05 02:03:44;;;;;;;5.45;1.58;;;;;;;20.70;52.88;102283.88;4912124;29;20509;-70
2023/10/05 02:06:15;;;;;;;4.65;1.48;;;;;;;20.70;52.69;102283.88;4913644;29;20930;-71
2023/10/05 02:08:42;;;;;;;4.97;1.42;;;;;;;20.69;52.67;102284.84;4915649;29;20132;-71
2023/10/05 02:11:09;;;;;;;5.47;1.40;;;;;;;20.69;52.55;102284.84;4912515;29;20040;-76
2023/10/05 02:13:35;;;;;;;3.85;1.30;;;;;;;20.68;52.82;102278.69;4914307;29;20032;-70
2023/10/05 02:16:02;;;;;;;3.53;1.40;;;;;;;20.68;52.68;102280.47;4910936;29;20040;-71
2023/10/05 02:18:30;;;;;;;4.03;1.48;;;;;;;20.68;52.42;102277.81;4914033;29;20457;-70
2023/10/05 02:21:05;;;;;;;3.88;1.52;;;;;;;20.68;52.53;102272.53;4912521;29;20098;-70
2023/10/05 02:23:51;;;;;;;5.55;1.67;;;;;;;20.67;52.60;102277.00;4914541;29;20051;-72
2023/10/05 02:27:17;;;;;;;3.35;1.25;;;;;;;20.67;52.57;102278.81;4914370;29;20035;-73
2023/10/05 02:29:14;;;;;;;5.03;1.38;;;;;;;20.67;52.61;102274.34;4911104;29;20062;-70
2023/10/05 02:34:45;;;;;;;3.95;1.50;;;;;;;20.67;52.56;102270.84;4905025;29;20096;-71
2023/10/05 02:37:11;;;;;;;4.30;1.40;;;;;;;20.67;52.55;102273.50;4906652;29;20039;-74
2023/10/05 02:39:41;;;;;;;5.95;1.88;;;;;;;20.65;52.40;102266.50;4908816;29;20079;-74
2023/10/05 02:42:12;;;;;;;6.10;1.50;;;;;;;20.64;52.43;102261.31;4922040;29;20043;-76
2023/10/05 02:44:38;;;;;;;4.38;1.52;;;;;;;20.63;52.22;102260.44;4917849;29;20341;-74
2023/10/05 02:47:08;;;;;;;4.43;1.40;;;;;;;20.65;52.62;102268.31;4915831;29;20880;-75
2023/10/05 02:49:39;;;;;;;3.97;1.30;;;;;;;20.63;52.36;102252.50;4914412;29;20035;-76
2023/10/05 02:52:06;;;;;;;3.47;1.25;;;;;;;20.64;52.57;102253.38;4915180;29;20523;-70
2023/10/05 02:54:31;;;;;;;5.22;1.48;;;;;;;20.62;52.25;102247.31;4905237;29;20506;-75
2023/10/05 02:56:56;;;;;;;4.53;1.42;;;;;;;20.63;52.39;102248.97;4913034;29;20584;-71
2023/10/05 02:59:26;;;;;;;3.92;1.30;;;;;;;20.61;52.71;102256.19;4916819;29;20036;-73
2023/10/05 03:01:53;;;;;;;4.78;1.58;;;;;;;20.61;52.46;102257.03;4916885;29;20040;-71
2023/10/05 03:04:22;;;;;;;3.45;1.40;;;;;;;20.62;52.19;102261.38;4918675;29;20050;-70
2023/10/05 03:06:49;;;;;;;4.68;1.40;;;;;;;20.63;52.30;102265.75;4904837;29;20036;-75
2023/10/05 03:09:14;;;;;;;4.43;1.50;;;;;;;20.62;52.29;102258.75;4906976;29;20091;-70
2023/10/05 03:11:41;;;;;;;4.60;1.40;;;;;;;20.61;52.40;102248.25;4903554;29;20386;-71
2023/10/05 03:14:10;;;;;;;3.67;1.40;;;;;;;20.61;52.33;102246.44;4904513;29;20050;-70
2023/10/05 03:16:43;;;;;;;4.22;1.40;;;;;;;20.61;52.54;102251.72;4919276;29;20039;-73
2023/10/05 03:19:21;;;;;;;4.28;1.40;;;;;;;20.61;52.10;102246.44;4916200;29;20150;-73
2023/10/05 03:21:52;;;;;;;4.25;1.70;;;;;;;20.60;52.25;102246.53;4904002;29;20059;-72
2023/10/05 03:24:36;;;;;;;4.00;1.25;;;;;;;20.56;52.21;102248.56;4903306;29;20040;-76
2023/10/05 03:27:05;;;;;;;4.60;1.60;;;;;;;20.59;52.27;102244.88;4908487;29;20055;-75
2023/10/05 03:29:30;;;;;;;4.95;1.48;;;;;;;20.59;52.21;102253.66;4914315;29;20052;-73
2023/10/05 03:34:35;;;;;;;5.90;1.42;;;;;;;20.59;52.28;102236.91;4906446;29;20036;-70
2023/10/05 03:37:08;;;;;;;3.55;1.20;;;;;;;20.56;52.02;102237.97;4911733;29;20047;-74
2023/10/05 03:39:53;;;;;;;5.65;1.60;;;;;;;20.58;52.36;102241.34;4916197;29;20058;-71
2023/10/05 03:42:38;;;;;;;4.35;1.60;;;;;;;20.59;52.16;102239.56;4922094;29;20623;-74
2023/10/05 03:45:04;;;;;;;4.05;1.23;;;;;;;20.57;52.33;102239.69;4895080;29;20514;-70
2023/10/05 03:47:39;;;;;;;4.30;1.75;;;;;;;20.57;52.03;102241.47;4920965;29;20031;-74
2023/10/05 03:50:06;;;;;;;4.43;1.40;;;;;;;20.57;52.42;102254.69;4910751;29;20035;-71
2023/10/05 03:52:34;;;;;;;4.53;1.40;;;;;;;20.58;52.08;102253.75;4909926;29;20035;-70
2023/10/05 03:55:01;;;;;;;4.80;1.52;;;;;;;20.56;51.98;102258.31;4910166;29;21099;-71
2023/10/05 03:57:36;;;;;;;4.75;2.10;;;;;;;20.55;52.13;102254.81;4903917;29;20044;-75
2023/10/05 04:02:46;;;;;;;4.35;1.33;;;;;;;20.55;52.17;102236.25;4915569;29;20107;-71
2023/10/05 04:05:11;;;;;;;4.70;1.27;;;;;;;20.56;52.13;102224.72;4903157;29;20063;-74
2023/10/05 04:07:38;;;;;;;6.00;1.60;;;;;;;20.56;52.13;102226.53;4902994;29;20147;-74
2023/10/05 04:10:05;;;;;;;4.40;1.50;;;;;;;20.54;52.19;102229.28;4903054;29;20123;-72
2023/10/05 04:12:32;;;;;;;5.28;1.40;;;;;;;20.55;52.13;102233.63;4906569;29;20130;-70
2023/10/05 04:15:20;;;;;;;3.75;1.58;;;;;;;20.55;51.89;102244.22;4921405;29;20091;-75
2023/10/05 04:17:49;;;;;;;4.70;1.45;;;;;;;20.55;51.91;102244.22;4917224;29;20039;-71
2023/10/05 04:20:28;;;;;;;4.22;1.40;;;;;;;20.56;51.86;102245.06;4915174;29;20040;-75
2023/10/05 04:22:55;;;;;;;4.18;1.40;;;;;;;20.55;52.22;102246.03;4918129;29;20882;-70
2023/10/05 04:25:21;;;;;;;4.80;1.50;;;;;;;20.54;51.91;102239.06;4903437;29;20036;-72
2023/10/05 04:27:46;;;;;;;4.05;1.50;;;;;;;20.53;51.86;102238.19;4907377;29;20055;-71
2023/10/05 04:30:14;;;;;;;6.38;1.35;;;;;;;20.53;52.04;102237.34;4921318;29;20063;-74
2023/10/05 04:32:40;;;;;;;4.85;1.45;;;;;;;20.54;51.82;102244.34;4913255;29;20126;-70
2023/10/05 04:35:14;;;;;;;3.60;1.25;;;;;;;20.52;51.78;102244.44;4903657;29;20155;-72
2023/10/05 04:37:40;;;;;;;3.65;1.58;;;;;;;20.54;52.12;102236.41;4917221;29;20055;-70
2023/10/05 04:40:11;;;;;;;4.60;1.50;;;;;;;20.53;52.06;102246.13;4916765;29;20039;-72
2023/10/05 04:42:36;;;;;;;3.65;1.23;;;;;;;20.53;51.95;102237.34;4916423;29;20043;-75
2023/10/05 04:45:10;;;;;;;4.38;1.40;;;;;;;20.52;51.72;102240.94;4912449;29;20040;-71
2023/10/05 04:47:36;;;;;;;4.30;1.30;;;;;;;20.52;51.95;102243.59;4911666;29;20060;-74
2023/10/05 04:50:02;;;;;;;4.30;1.50;;;;;;;20.50;52.13;102238.41;4915731;29;20040;-73
2023/10/05 04:52:33;;;;;;;4.88;1.30;;;;;;;20.52;51.86;102247.09;4919553;29;20036;-71
2023/10/05 04:55:11;;;;;;;6.05;1.60;;;;;;;20.50;51.79;102246.34;4915300;29;20048;-72
2023/10/05 04:57:49;;;;;;;4.68;1.40;;;;;;;20.51;51.99;102237.44;4916261;29;20038;-71
2023/10/05 05:08:28;;;;;;;5.18;1.40;;;;;;;20.51;51.97;102234.81;4917137;29;20556;-75
2023/10/05 05:10:53;;;;;;;3.70;1.40;;;;;;;20.50;52.22;102233.09;4917150;29;20039;-73
2023/10/05 05:13:21;;;;;;;5.55;1.35;;;;;;;20.47;51.86;102236.81;4917882;29;20028;-72
2023/10/05 05:15:47;;;;;;;5.47;1.33;;;;;;;20.46;51.99;102243.06;4916843;29;20100;-74
2023/10/05 05:18:14;;;;;;;6.18;1.40;;;;;;;20.46;51.74;102251.00;4912650;29;20036;-73
2023/10/05 05:20:47;;;;;;;3.28;1.30;;;;;;;20.47;52.20;102243.91;4915464;29;20083;-72
2023/10/05 05:23:13;;;;;;;4.80;1.48;;;;;;;20.46;52.13;102251.00;4912454;29;20031;-74
2023/10/05 05:25:39;;;;;;;5.75;1.60;;;;;;;20.47;52.27;102251.84;4897930;29;20058;-73
2023/10/05 05:28:05;;;;;;;3.83;1.30;;;;;;;20.46;51.96;102252.81;4903601;29;20059;-72
2023/10/05 05:30:32;;;;;;;3.83;1.45;;;;;;;20.47;52.02;102254.50;4916401;29;20501;-72
2023/10/05 05:32:57;;;;;;;5.40;1.45;;;;;;;20.46;52.07;102252.81;4918292;29;20036;-71
2023/10/05 05:35:23;;;;;;;4.53;1.40;;;;;;;20.47;51.92;102260.66;4917789;29;20098;-72
2023/10/05 05:37:48;;;;;;;4.88;1.45;;;;;;;20.47;51.89;102255.38;4911331;29;20103;-71
2023/10/05 05:40:14;;;;;;;4.45;1.38;;;;;;;20.47;51.91;102265.97;4921772;29;20389;-73
2023/10/05 05:42:40;;;;;;;4.45;1.33;;;;;;;20.47;51.71;102260.66;4921581;29;20513;-72
2023/10/05 05:45:14;;;;;;;4.78;1.20;;;;;;;20.47;51.87;102262.44;4910264;29;20032;-72
2023/10/05 05:47:41;;;;;;;6.50;1.58;;;;;;;20.47;51.92;102259.78;4911865;29;20085;-71
2023/10/05 05:50:08;;;;;;;4.72;1.70;;;;;;;20.47;52.06;102265.97;4915991;29;20130;-74
2023/10/05 05:52:34;;;;;;;4.78;1.50;;;;;;;20.46;52.18;102263.41;4918834;29;20548;-74
2023/10/05 05:55:10;;;;;;;4.95;1.60;;;;;;;20.47;51.69;102262.44;4916053;29;20035;-72
2023/10/05 05:57:36;;;;;;;5.10;1.50;;;;;;;20.46;52.14;102266.91;4914142;29;20051;-71
2023/10/05 06:00:11;;;;;;;6.30;1.70;;;;;;;20.45;51.94;102267.84;4911403;29;20042;-72
2023/10/05 06:02:40;;;;;;;4.57;1.42;;;;;;;20.44;52.40;102262.66;4923289;29;20067;-74
2023/10/05 06:05:10;;;;;;;5.80;1.50;;;;;;;20.43;52.47;102261.81;4919105;29;20494;-74
2023/10/05 06:07:40;;;;;;;3.75;1.40;;;;;;;20.43;52.83;102255.69;4918137;29;20031;-73
2023/10/05 06:10:13;;;;;;;5.88;1.67;;;;;;;20.43;52.68;102263.63;4921007;29;20115;-74
2023/10/05 06:12:42;;;;;;;6.43;1.35;;;;;;;20.40;52.71;102264.66;4922377;29;20362;-75
2023/10/05 06:15:15;;;;;;;3.22;1.35;;;;;;;20.41;53.02;102274.31;4918318;29;20047;-75
2023/10/05 06:17:42;;;;;;;4.25;1.48;;;;;;;20.40;53.01;102269.13;4906951;29;20115;-73
2023/10/05 06:20:14;;;;;;;5.60;1.55;;;;;;;20.40;52.95;102279.72;4923574;29;20225;-73
2023/10/05 06:22:44;;;;;;;6.93;1.77;;;;;;;20.40;53.07;102282.38;4920853;29;20043;-73
2023/10/05 06:25:17;;;;;;;5.75;1.58;;;;;;;20.40;53.36;102287.66;4922510;29;20553;-73
2023/10/05 06:27:43;;;;;;;4.97;1.40;;;;;;;20.40;52.88;102292.97;4909225;29;20038;-74
2023/10/05 06:30:12;;;;;;;3.53;1.38;;;;;;;20.42;53.32;102293.69;4916733;29;20048;-74
2023/10/05 06:32:38;;;;;;;6.20;1.40;;;;;;;20.43;53.31;102300.69;4894800;29;20095;-74
2023/10/05 06:35:08;;;;;;;4.10;1.50;;;;;;;20.43;53.13;102306.81;4895135;29;20056;-74
2023/10/05 06:37:39;;;;;;;5.25;1.48;;;;;;;20.44;53.47;102300.59;4899494;29;20503;-74
2023/10/05 06:40:21;;;;;;;7.15;1.58;;;;;;;20.45;53.33;102302.25;4891725;29;20056;-72
2023/10/05 06:42:49;;;;;;;4.88;1.55;;;;;;;20.47;53.54;102308.31;4902860;29;20434;-74
2023/10/05 06:45:15;;;;;;;4.63;1.50;;;;;;;20.47;53.45;102307.47;4891407;29;20040;-73
2023/10/05 06:47:41;;;;;;;5.80;1.50;;;;;;;20.46;53.48;102300.47;4896990;29;20031;-74
2023/10/05 06:50:08;;;;;;;3.95;1.38;;;;;;;20.46;53.31;102305.78;4894793;29;20047;-74
2023/10/05 06:52:44;;;;;;;4.93;1.33;;;;;;;20.47;53.76;102312.75;4902460;29;20044;-74
2023/10/05 06:55:12;;;;;;;4.75;1.45;;;;;;;20.48;53.94;102323.25;4896906;29;20040;-74
2023/10/05 06:57:38;;;;;;;6.30;1.52;;;;;;;20.49;53.73;102321.47;4893113;29;20688;-74
2023/10/05 07:00:16;;;;;;;3.67;1.38;;;;;;;20.50;53.86;102328.44;4893382;29;20096;-74
2023/10/05 07:02:45;;;;;;;5.63;1.75;;;;;;;20.47;53.96;102326.88;4896799;29;20080;-78
2023/10/05 07:05:11;;;;;;;4.53;1.60;;;;;;;20.47;53.71;102331.28;4893728;29;20478;-74
2023/10/05 07:07:37;;;;;;;4.40;1.65;;;;;;;20.48;53.83;102331.19;4893812;29;20035;-76
2023/10/05 07:10:04;;;;;;;5.13;1.55;;;;;;;20.47;53.73;102324.22;4917611;29;20099;-75
2023/10/05 07:12:31;;;;;;;6.30;1.60;;;;;;;20.47;53.63;102334.81;4909037;29;20482;-76
2023/10/05 07:14:57;;;;;;;4.20;1.40;;;;;;;20.48;53.71;102330.34;4894464;29;20154;-76
2023/10/05 07:17:22;;;;;;;7.47;1.77;;;;;;;20.48;53.87;102344.44;4894260;29;20036;-75
2023/10/05 07:19:49;;;;;;;5.68;1.58;;;;;;;20.47;53.69;102349.81;4893658;29;20454;-75
2023/10/05 07:22:16;;;;;;;6.15;1.90;;;;;;;20.46;53.68;102350.81;4896173;29;20131;-75
2023/10/05 07:24:42;;;;;;;4.82;1.58;;;;;;;20.47;53.57;102350.69;4895454;29;20035;-75
2023/10/05 07:27:07;;;;;;;5.05;1.80;;;;;;;20.47;54.08;102347.19;4894669;29;20087;-74
2023/10/05 07:29:32;;;;;;;4.75;1.63;;;;;;;20.46;53.51;102348.16;4898983;29;20497;-76
2023/10/05 07:31:58;;;;;;;7.82;1.70;;;;;;;20.45;53.75;102355.22;4913850;29;20051;-76
2023/10/05 07:34:23;;;;;;;6.35;1.75;;;;;;;20.47;53.74;102363.94;4915669;29;20070;-76
2023/10/05 07:36:50;;;;;;;6.93;1.63;;;;;;;20.49;53.93;102371.78;4913679;29;20032;-76
2023/10/05 07:39:16;;;;;;;6.53;1.60;;;;;;;20.50;53.71;102376.09;4916237;29;20039;-76
2023/10/05 07:41:44;;;;;;;5.90;1.90;;;;;;;20.46;53.84;102375.47;4912057;29;20099;-73
2023/10/05 07:44:09;;;;;;;7.35;2.00;;;;;;;20.36;54.23;102377.06;4907406;29;20070;-73
2023/10/05 07:46:34;;;;;;;5.88;1.60;;;;;;;20.26;54.50;102371.50;4917577;29;20475;-72
2023/10/05 07:49:00;;;;;;;6.50;1.88;;;;;;;20.21;54.75;102375.41;4913664;29;20458;-73
2023/10/05 07:51:25;;;;;;;7.60;1.53;;;;;;;20.17;54.94;102385.38;4908895;29;20046;-73
2023/10/05 07:53:51;;;;;;;4.25;1.70;;;;;;;20.15;54.79;102375.81;4910342;29;20282;-74
2023/10/05 07:56:16;;;;;;;10.15;1.77;;;;;;;20.14;54.65;102374.97;4913085;29;20040;-73
2023/10/05 07:58:44;;;;;;;7.57;1.73;;;;;;;20.14;55.04;102390.84;4919618;29;20040;-74
2023/10/05 08:01:10;;;;;;;6.07;1.50;;;;;;;20.28;54.41;102384.63;4912277;29;20036;-70
2023/10/05 08:03:39;;;;;;;6.03;1.42;;;;;;;20.40;54.22;102383.81;4908962;29;20040;-70
2023/10/05 08:06:09;;;;;;;6.78;1.60;;;;;;;20.47;54.03;102386.91;4913098;29;20087;-70
2023/10/05 08:08:34;;;;;;;4.90;1.65;;;;;;;20.53;54.13;102385.66;4916987;29;20036;-70
2023/10/05 08:11:00;;;;;;;5.32;1.60;;;;;;;20.54;53.58;102388.19;4913145;29;20039;-72
2023/10/05 08:13:25;;;;;;;4.68;1.33;;;;;;;20.57;53.76;102392.41;4914625;29;20472;-71
2023/10/05 08:15:51;;;;;;;5.45;1.55;;;;;;;20.59;53.42;102393.19;4913088;29;20036;-70
2023/10/05 08:18:16;;;;;;;7.20;1.80;;;;;;;20.59;53.84;102395.84;4912832;29;20031;-73
2023/10/05 08:20:41;;;;;;;5.03;1.60;;;;;;;20.60;53.74;102400.16;4916073;29;20040;-70
2023/10/05 08:23:07;;;;;;;5.68;1.42;;;;;;;20.59;53.83;102394.03;4913282;29;20274;-72
2023/10/05 08:25:32;;;;;;;5.47;1.50;;;;;;;20.60;53.71;102403.69;4920375;29;20032;-69
2023/10/05 08:27:57;;;;;;;5.53;1.50;;;;;;;20.57;53.63;102398.59;4917619;29;20028;-72
2023/10/05 08:30:24;;;;;;;5.30;1.70;;;;;;;20.59;53.78;102404.63;4925864;29;20054;-70
2023/10/05 08:32:50;;;;;;;7.90;1.85;;;;;;;20.59;53.65;102399.31;4917586;29;20098;-78
2023/10/05 08:35:18;;;;;;;6.95;1.60;;;;;;;20.59;53.48;102404.63;4914410;29;20035;-72
2023/10/05 08:37:48;;;;;;;7.22;1.92;;;;;;;20.58;53.63;102400.25;4917740;29;20060;-72
2023/10/05 08:40:37;;;;;;;6.90;1.65;;;;;;;20.59;53.90;102404.63;4916775;29;20175;-80
2023/10/05 08:43:08;;;;;;;6.25;1.65;;;;;;;20.60;53.61;102403.69;4915609;29;21037;-70
2023/10/05 08:46:01;;;;;;;5.75;2.05;;;;;;;20.59;53.64;102420.50;4897380;29;20059;-74
2023/10/05 08:48:28;;;;;;;5.70;1.70;;;;;;;20.59;53.69;102423.16;4921350;29;20056;-81
2023/10/05 08:50:58;;;;;;;6.10;1.67;;;;;;;20.59;53.65;102417.03;4918527;29;20031;-70
2023/10/05 08:53:23;;;;;;;6.10;1.63;;;;;;;20.61;53.54;102420.41;4925913;29;20047;-69
2023/10/05 08:55:51;;;;;;;4.80;1.48;;;;;;;20.59;53.54;102431.13;4914437;29;20036;-72
2023/10/05 08:58:18;;;;;;;8.77;1.73;;;;;;;20.59;53.75;102425.81;4917417;29;20032;-74
2023/10/05 09:00:47;;;;;;;6.45;2.00;;;;;;;20.59;54.02;102431.13;4919368;29;20075;-72
2023/10/05 09:03:35;;;;;;;6.65;1.58;;;;;;;20.60;53.99;102426.66;4918866;29;20112;-73
2023/10/05 09:06:21;;;;;;;8.98;2.22;;;;;;;20.60;53.99;102429.31;4910319;29;20091;-76
2023/10/05 09:09:15;;;;;;;7.93;1.70;;;;;;;20.61;53.91;102438.97;4899531;29;20066;-76
2023/10/05 09:11:40;;;;;;;5.50;1.80;;;;;;;20.63;53.69;102445.84;4910796;29;20047;-74
2023/10/05 09:14:13;;;;;;;4.90;1.48;;;;;;;20.62;53.95;102460.03;4914779;29;20039;-74
2023/10/05 09:16:44;;;;;;;5.03;1.55;;;;;;;20.62;54.04;102457.41;4898573;29;20036;-72
2023/10/05 09:19:29;;;;;;;4.50;1.42;;;;;;;20.56;54.09;102462.25;4913287;29;20032;-75
2023/10/05 09:22:22;;;;;;;5.03;1.70;;;;;;;20.55;54.34;102461.38;4919873;29;20200;-73
2023/10/05 09:24:53;;;;;;;8.13;1.73;;;;;;;20.55;54.61;102469.34;4914619;29;20044;-77
2023/10/05 09:27:19;;;;;;;4.55;1.70;;;;;;;20.60;53.98;102472.56;4914584;29;20047;-75
2023/10/05 09:29:45;;;;;;;5.03;1.40;;;;;;;20.62;54.02;102469.81;4913776;29;20051;-74
2023/10/05 09:32:36;;;;;;;5.22;1.52;;;;;;;20.61;53.92;102468.09;4913446;29;20039;-75
2023/10/05 09:35:01;;;;;;;7.28;1.83;;;;;;;20.64;54.26;102471.41;4916316;29;20046;-73
2023/10/05 09:37:27;;;;;;;5.55;2.03;;;;;;;20.64;54.16;102474.06;4915949;29;20024;-76
2023/10/05 09:39:59;;;;;;;5.40;1.40;;;;;;;20.63;54.00;102468.81;4915894;29;20389;-75
2023/10/05 09:42:27;;;;;;;7.15;1.60;;;;;;;20.64;54.07;102466.13;4914515;29;20044;-75
2023/10/05 09:44:57;;;;;;;4.45;1.48;;;;;;;20.63;54.21;102463.53;4915909;29;20039;-74
2023/10/05 09:47:33;;;;;;;5.68;1.58;;;;;;;20.62;53.95;102464.50;4915760;29;20127;-73
2023/10/05 09:50:09;;;;;;;3.70;1.48;;;;;;;20.61;54.13;102462.78;4917677;29;20043;-75
2023/10/05 09:52:43;;;;;;;6.57;1.65;;;;;;;20.61;53.77;102468.94;4917598;29;20122;-73
2023/10/05 09:55:19;;;;;;;9.37;1.60;;;;;;;20.61;53.78;102466.28;4914908;29;20032;-76
2023/10/05 09:57:47;;;;;;;7.05;1.85;;;;;;;20.63;54.21;102472.34;4900943;29;20270;-74
2023/10/05 10:02:59;;;;;;;7.43;1.70;;;;;;;20.62;54.21;102475.94;4916190;29;20481;-76
2023/10/05 10:05:36;;;;;;;8.85;1.85;;;;;;;20.63;54.37;102475.00;4922229;29;20118;-77
2023/10/05 10:08:09;;;;;;;7.68;1.48;;;;;;;20.64;54.50;102467.91;4912646;29;20036;-73
2023/10/05 10:10:51;;;;;;;7.28;1.60;;;;;;;20.62;54.20;102468.00;4917727;29;20075;-75
2023/10/05 10:13:22;;;;;;;7.68;1.48;;;;;;;20.62;54.39;102467.16;4913161;29;20055;-73
2023/10/05 10:15:49;;;;;;;7.88;1.65;;;;;;;20.67;54.17;102477.47;4917475;29;20044;-72
2023/10/05 10:18:15;;;;;;;5.63;2.00;;;;;;;20.65;54.29;102470.47;4915573;29;20032;-82
2023/10/05 10:20:48;;;;;;;6.68;1.80;;;;;;;20.66;54.33;102471.31;4917743;29;20035;-79
2023/10/05 10:23:24;;;;;;;5.10;1.50;;;;;;;20.66;54.55;102473.97;4911648;29;20032;-74
2023/10/05 10:25:52;;;;;;;6.90;1.88;;;;;;;20.69;54.29;102467.63;4917177;29;20036;-77
2023/10/05 10:31:21;;;;;;;5.57;1.30;;;;;;;20.71;54.56;102466.56;4916401;29;20110;-72
2023/10/05 10:33:53;;;;;;;6.18;1.30;;;;;;;20.73;54.12;102472.63;4917919;29;20031;-74
2023/10/05 10:36:22;;;;;;;6.68;1.70;;;;;;;20.73;54.18;102458.50;4914551;29;20047;-72
2023/10/05 10:38:51;;;;;;;8.25;1.50;;;;;;;20.72;54.37;102470.91;4914406;29;20178;-74
2023/10/05 10:41:19;;;;;;;6.03;1.90;;;;;;;20.73;54.59;102477.03;4909458;29;20035;-73
2023/10/05 10:44:00;;;;;;;11.32;2.20;;;;;;;20.71;54.54;102473.66;4914578;29;20090;-72
2023/10/05 10:46:34;;;;;;;7.45;1.73;;;;;;;20.74;54.68;102465.50;4842642;29;20027;-70
2023/10/05 10:48:59;;;;;;;10.40;2.00;;;;;;;20.74;54.89;102474.28;3369520;28;10000439;-74
2023/10/05 10:51:31;;;;;;;8.23;1.83;;;;;;;20.74;54.61;102476.09;3860817;28;59560;-77
2023/10/05 10:54:00;;;;;;;7.50;1.77;;;;;;;20.77;54.49;102460.84;3253329;29;10131473;-73
2023/10/05 10:56:34;;;;;;;9.27;1.70;;;;;;;20.76;54.41;102464.47;3992740;29;57368;-73
2023/10/05 10:59:10;;;;;;;5.03;1.63;;;;;;;20.78;54.21;102457.25;2180984;29;10005560;-74
2023/10/05 11:01:43;;;;;;;10.57;1.88;;;;;;;20.78;54.39;102456.41;4927063;29;20055;-71
2023/10/05 11:04:26;;;;;;;6.05;1.65;;;;;;;20.77;54.60;102463.50;4919895;29;20044;-75
2023/10/05 11:06:56;;;;;;;4.20;1.60;;;;;;;20.77;54.37;102460.84;4932189;28;20385;-72
2023/10/05 11:09:30;;;;;;;5.60;1.80;;;;;;;20.79;54.57;102458.09;4929502;29;20031;-73
2023/10/05 11:12:21;;;;;;;6.80;1.83;;;;;;;20.78;54.25;102462.53;4927927;29;20576;-72
2023/10/05 11:14:44;;;;;;;5.57;1.60;;;;;;;20.79;54.34;102461.59;4927815;29;20127;-75
2023/10/05 11:17:30;;;;;;;4.32;1.48;;;;;;;20.80;54.79;102465.09;4926807;29;20122;-74
2023/10/05 11:19:58;;;;;;;6.05;1.60;;;;;;;20.83;54.63;102467.53;4926791;29;20042;-73
2023/10/05 11:22:23;;;;;;;6.35;1.85;;;;;;;20.83;54.61;102462.25;4925927;29;20035;-72
2023/10/05 11:25:31;;;;;;;5.97;1.80;;;;;;;20.81;54.61;102457.03;4925549;29;20047;-74
2023/10/05 11:27:59;;;;;;;5.25;1.52;;;;;;;20.85;54.80;102457.69;4924652;29;20059;-69
2023/10/05 11:30:47;;;;;;;7.97;1.95;;;;;;;20.85;54.79;102452.38;4936316;28;20051;-72
2023/10/05 11:33:15;;;;;;;7.60;1.88;;;;;;;20.84;54.60;102446.25;4942100;28;20094;-73
2023/10/05 11:35:54;;;;;;;4.75;1.58;;;;;;;20.83;54.61;102452.47;4942699;28;20058;-72
2023/10/05 11:38:26;;;;;;;5.53;1.90;;;;;;;20.84;54.84;102443.59;4942444;28;20480;-72
2023/10/05 11:41:09;;;;;;;8.27;1.90;;;;;;;20.85;54.84;102447.06;4946494;28;20064;-71
2023/10/05 11:43:35;;;;;;;5.60;1.50;;;;;;;20.84;54.68;102451.53;4944309;28;20443;-71
2023/10/05 11:46:23;;;;;;;8.93;1.70;;;;;;;20.84;54.66;102454.19;4946242;28;20030;-74
2023/10/05 11:48:51;;;;;;;6.57;1.60;;;;;;;20.87;54.83;102447.84;4945835;28;20031;-75
2023/10/05 11:51:19;;;;;;;7.18;1.83;;;;;;;20.86;54.89;102453.25;4947791;28;20035;-73
2023/10/05 11:53:46;;;;;;;7.47;2.10;;;;;;;20.84;54.55;102451.53;4944134;28;20035;-74
2023/10/05 11:56:15;;;;;;;6.28;1.80;;;;;;;20.85;54.54;102455.03;4944454;28;20035;-75
2023/10/05 11:58:41;;;;;;;7.53;2.00;;;;;;;20.87;54.61;102457.56;4947584;28;20494;-76
2023/10/05 12:01:07;;;;;;;7.60;1.67;;;;;;;20.87;54.81;102445.19;4943987;28;20039;-74
2023/10/05 12:03:33;;;;;;;8.82;1.75;;;;;;;20.89;54.66;102447.75;4942300;28;20097;-74